LEBL/BCN METAR and TAF weather

Enter ICAO airport designator
Station Type Date Time Source
LEBL METAR 2019/02/17 07:30 UTC NOAA

LEBL 170730Z 33011G22KT 300V020 9999 FEW016 04/M03 Q1028 NOSIG


Station Type Date Time Source
LEBL Decoded METAR 2019/02/17 07:30 UTC NOAA

Barcelona / Aeropuerto, Spain (LEBL) 41-17N 002-04E 6M
Feb 17, 2019 - 02:30 AM EST / 2019.02.17 0730 UTC
Wind: from the NNW (330 degrees) at 13 MPH (11 KT) gusting to 25 MPH (22 KT) (direction variable):0
Visibility: greater than 7 mile(s):0
Sky conditions: mostly clear
Temperature: 39 F (4 C)
Dew Point: 26 F (-3 C)
Relative Humidity: 60%
Pressure (altimeter): 30.36 in. Hg (1028 hPa)
ob: LEBL 170730Z 33011G22KT 300V020 9999 FEW016 04/M03 Q1028 NOSIG
cycle: 7

Station Type Date Time Source
LEBL TAF 2019/02/17 06:27 UTC NOAA

TAF LEBL 170500Z 1706/1806 35007KT 9999 FEW020 TX16/1712Z TN05/1707Z PROB40
TEMPO 1706/1707 3000 BR BKN004 PROB30
TEMPO 1706/1708 VRB03KT 0800 FG OVC004
BECMG 1710/1713 13006KT
BECMG 1718/1721 31008KT


Example: see airport list